Woodburn, Mississippi
Current Conditions -  °F | °C
As of 5:53 PM on Saturday 22 Nov 2014 (Local Time) from KGLH Reporting Station
Clear Clear  
Wind Chill: 62°   Ceiling: Unl
Heat Index: 62°   Visibility: 10mi
Dew Point: 52°   Wind: 9mph
Humidity: 70%   Direction: 140°SE
Pressure: 30.02"   Gusts: NA
Location:  33.4825°N, 90.6856°W
Report Text: KGLH 222353Z AUTO 14008KT 10SM CLR 17/11 A3002 RMK AO2 SLP174 T01670111 10217 20167 55004
Loading
Personal Weather Stations






























Interactive Weather Map New forecast layout! Learn more

10-Day Weather Forecast

Advertisements
Track Severe Weather on mobile